createdAt,value
2023-04-17T00:00:33.781Z,31.98
2023-04-17T00:03:37.766Z,32.55
2023-04-17T00:06:43.153Z,31.20
2023-04-17T00:09:45.701Z,30.25
2023-04-17T00:12:48.524Z,28.45
2023-04-17T00:15:51.065Z,28.10
2023-04-17T00:18:54.989Z,30.55
2023-04-17T00:21:57.568Z,31.13
2023-04-17T00:25:00.186Z,30.70
2023-04-17T00:28:02.699Z,30.95
2023-04-17T00:31:05.764Z,30.27
2023-04-17T00:34:09.623Z,30.38
2023-04-17T00:37:12.224Z,29.75
2023-04-17T00:40:15.329Z,28.67
2023-04-17T00:43:17.950Z,26.48
2023-04-17T00:46:20.540Z,26.10
2023-04-17T00:49:24.498Z,25.83
2023-04-17T00:52:28.792Z,26.17
2023-04-17T00:55:31.870Z,26.75
2023-04-17T00:58:34.449Z,29.63
2023-04-17T01:01:37.067Z,29.50
2023-04-17T01:04:41.007Z,29.63
2023-04-17T01:07:43.583Z,30.80
2023-04-17T01:10:46.259Z,31.15
2023-04-17T01:13:49.051Z,29.42
2023-04-17T01:16:51.633Z,29.48
2023-04-17T01:19:55.643Z,31.38
2023-04-17T01:22:58.444Z,29.40
2023-04-17T01:26:02.279Z,30.25
2023-04-17T01:29:04.796Z,29.75
2023-04-17T01:32:07.303Z,32.08
2023-04-17T01:35:10.736Z,31.95
2023-04-17T01:38:13.296Z,32.17
2023-04-17T01:41:17.136Z,31.40
2023-04-17T01:44:19.684Z,29.98
2023-04-17T01:47:22.479Z,30.08
2023-04-17T01:50:25.060Z,32.08
2023-04-17T01:53:27.641Z,29.85
2023-04-17T01:56:31.595Z,28.23
2023-04-17T01:59:34.164Z,26.42
2023-04-17T02:02:36.912Z,26.70
2023-04-17T02:05:39.610Z,25.80
2023-04-17T02:08:42.146Z,26.98
2023-04-17T02:11:46.364Z,26.45
2023-04-17T02:14:48.894Z,26.85
2023-04-17T02:17:51.649Z,26.45
2023-04-17T02:20:54.414Z,26.85
2023-04-17T02:23:57.010Z,28.20
2023-04-17T02:27:00.921Z,29.17
2023-04-17T02:30:03.683Z,27.48
2023-04-17T02:33:06.227Z,28.83
2023-04-17T02:36:09.339Z,29.63
2023-04-17T02:39:12.110Z,29.30
2023-04-17T02:42:16.116Z,31.20
2023-04-17T02:45:18.621Z,32.60
2023-04-17T02:48:21.152Z,32.53
2023-04-17T02:51:23.672Z,33.85
2023-04-17T02:54:26.268Z,30.60
2023-04-17T02:57:30.157Z,28.45
2023-04-17T03:00:32.843Z,28.10
2023-04-17T03:03:38.756Z,28.83
2023-04-17T03:06:41.993Z,28.27
2023-04-17T03:09:45.618Z,28.83
2023-04-17T03:12:49.474Z,29.30
2023-04-17T03:15:51.990Z,28.23
2023-04-17T03:18:54.555Z,27.83
2023-04-17T03:21:57.116Z,31.90
2023-04-17T03:24:59.640Z,31.33
2023-04-17T03:28:03.483Z,31.95
2023-04-17T03:31:06.417Z,32.40
2023-04-17T03:34:08.966Z,29.90
2023-04-17T03:37:11.549Z,27.98
2023-04-17T03:40:14.351Z,30.45
2023-04-17T03:43:18.359Z,27.27
2023-04-17T03:46:21.002Z,24.30
2023-04-17T03:49:23.613Z,24.83
2023-04-17T03:52:26.244Z,27.65
2023-04-17T03:55:28.814Z,27.13
2023-04-17T03:58:32.751Z,26.45
2023-04-17T04:01:38.613Z,27.27
2023-04-17T04:04:41.385Z,27.17
2023-04-17T04:07:45.174Z,31.35
2023-04-17T04:10:47.768Z,29.63
2023-04-17T04:13:51.624Z,31.08
2023-04-17T04:16:54.193Z,29.80
2023-04-17T04:19:56.760Z,30.55
2023-04-17T04:22:59.319Z,26.15
2023-04-17T04:26:02.575Z,24.20
2023-04-17T04:29:06.525Z,24.63
2023-04-17T04:32:13.582Z,24.30
2023-04-17T04:35:16.726Z,25.58
2023-04-17T04:38:19.360Z,26.58
2023-04-17T04:41:25.190Z,23.40
2023-04-17T04:44:29.070Z,27.08
2023-04-17T04:47:31.731Z,25.83
2023-04-17T04:50:34.353Z,27.55
2023-04-17T04:53:36.924Z,28.42
2023-04-17T04:56:40.046Z,28.48
2023-04-17T04:59:43.915Z,32.38
2023-04-17T05:02:46.634Z,30.60
2023-04-17T05:05:50.450Z,33.38
2023-04-17T05:08:53.004Z,30.70
2023-04-17T05:11:55.567Z,28.63
2023-04-17T05:14:59.451Z,28.90
2023-04-17T05:18:02.085Z,29.58
2023-04-17T05:21:04.889Z,28.80
2023-04-17T05:24:07.793Z,28.30
2023-04-17T05:27:10.391Z,28.67
2023-04-17T05:30:15.840Z,28.25
2023-04-17T05:33:18.409Z,28.83
2023-04-17T05:36:22.223Z,27.80
2023-04-17T05:39:24.751Z,25.45
2023-04-17T05:42:27.268Z,27.42
2023-04-17T05:45:31.263Z,26.55
2023-04-17T05:48:34.035Z,27.33
2023-04-17T05:51:36.586Z,28.27
2023-04-17T05:54:39.124Z,29.30
2023-04-17T05:57:41.673Z,28.42
2023-04-17T06:00:45.529Z,26.85
2023-04-17T06:03:48.499Z,26.77
2023-04-17T06:06:51.491Z,25.85
2023-04-17T06:09:54.083Z,26.10
2023-04-17T06:12:56.690Z,25.60
2023-04-17T06:16:00.698Z,25.30
2023-04-17T06:19:03.318Z,24.50
2023-04-17T06:22:05.954Z,25.30
2023-04-17T06:25:09.284Z,25.75
2023-04-17T06:28:11.818Z,25.88
2023-04-17T06:31:15.844Z,25.75
2023-04-17T06:34:18.469Z,23.48
2023-04-17T06:37:21.018Z,26.42
2023-04-17T06:40:23.586Z,24.13
2023-04-17T06:43:26.071Z,25.60
2023-04-17T06:46:30.032Z,23.98
2023-04-17T06:49:32.641Z,27.35
2023-04-17T06:52:35.280Z,27.13
2023-04-17T06:55:37.818Z,27.35
2023-04-17T06:58:44.487Z,22.73
2023-04-17T07:01:48.666Z,23.95
2023-04-17T07:04:51.536Z,24.25
2023-04-17T07:07:55.199Z,24.02
2023-04-17T07:10:57.776Z,23.90
2023-04-17T07:14:00.386Z,24.90
2023-04-17T07:17:04.841Z,25.27
2023-04-17T07:20:08.512Z,25.00
2023-04-17T07:23:11.131Z,25.05
2023-04-17T07:26:13.704Z,25.58
2023-04-17T07:29:16.338Z,26.38
2023-04-17T07:32:20.347Z,27.05
2023-04-17T07:35:23.264Z,25.23
2023-04-17T07:38:25.983Z,24.90
2023-04-17T07:41:28.591Z,25.35
2023-04-17T07:44:31.146Z,26.23
2023-04-17T07:47:35.088Z,27.52
2023-04-17T07:50:37.708Z,25.42
2023-04-17T07:53:40.403Z,27.52
2023-04-17T07:56:42.986Z,27.65
2023-04-17T07:59:45.646Z,25.88
2023-04-17T08:02:49.721Z,25.33
2023-04-17T08:05:53.950Z,25.13
2023-04-17T08:08:56.827Z,26.15
2023-04-17T08:11:59.350Z,29.30
2023-04-17T08:15:01.963Z,30.08
2023-04-17T08:18:06.217Z,27.55
2023-04-17T08:21:09.202Z,28.55
2023-04-17T08:24:11.790Z,27.75
2023-04-17T08:27:15.108Z,24.35
2023-04-17T08:30:19.304Z,26.23
2023-04-17T08:33:23.413Z,25.05
2023-04-17T08:36:27.037Z,24.25
2023-04-17T08:39:30.056Z,23.50
2023-04-17T08:42:33.034Z,25.48
2023-04-17T08:45:35.580Z,24.38
2023-04-17T08:48:39.435Z,26.20
2023-04-17T08:51:42.524Z,21.80
2023-04-17T08:54:45.107Z,25.00
2023-04-17T08:58:00.996Z,25.23
2023-04-17T09:01:08.717Z,26.48
2023-04-17T09:04:12.922Z,23.80
2023-04-17T09:07:15.888Z,24.08
2023-04-17T09:10:18.435Z,24.70
2023-04-17T09:13:21.867Z,23.48
2023-04-17T09:16:25.626Z,23.02
2023-04-17T09:19:29.642Z,23.73
2023-04-17T09:22:32.175Z,22.55
2023-04-17T09:25:34.734Z,20.45
2023-04-17T09:28:39.476Z,19.75
2023-04-17T09:31:42.848Z,20.98
2023-04-17T09:34:47.133Z,18.95
2023-04-17T09:37:50.756Z,19.40
2023-04-17T09:40:53.332Z,19.33
2023-04-17T09:44:00.946Z,20.15
2023-04-17T09:47:03.997Z,20.42
2023-04-17T09:50:09.836Z,16.48
2023-04-17T09:53:12.966Z,20.23
2023-04-17T09:56:15.473Z,19.67
2023-04-17T09:59:17.982Z,21.65
2023-04-17T10:02:22.553Z,19.77
2023-04-17T10:05:28.781Z,18.65
2023-04-17T10:08:32.241Z,15.88
2023-04-17T10:11:36.474Z,16.75
2023-04-17T10:14:40.088Z,14.27
2023-04-17T10:17:42.626Z,16.25
2023-04-17T10:20:48.563Z,14.93
2023-04-17T10:23:51.223Z,15.07
2023-04-17T10:26:53.792Z,15.43
2023-04-17T10:29:56.916Z,16.92
2023-04-17T10:33:22.226Z,15.93
2023-04-17T10:36:52.523Z,17.00
2023-04-17T10:40:00.676Z,16.85
2023-04-17T10:43:04.495Z,15.98
2023-04-17T10:46:10.385Z,17.08
2023-04-17T10:49:13.291Z,18.75
2023-04-17T10:52:40.116Z,21.30
2023-04-17T10:55:48.671Z,20.15
2023-04-17T10:58:57.600Z,19.30
2023-04-17T11:02:04.617Z,19.60
2023-04-17T11:08:11.586Z,16.13
2023-04-17T11:11:14.598Z,14.90
2023-04-17T11:14:18.791Z,16.63
2023-04-17T11:17:22.307Z,16.55
2023-04-17T11:20:25.473Z,16.55
2023-04-17T11:23:34.489Z,15.93
2023-04-17T11:26:43.149Z,16.42
2023-04-17T11:29:45.777Z,16.63
2023-04-17T11:32:48.318Z,16.27
2023-04-17T11:35:52.296Z,17.10
2023-04-17T11:38:57.850Z,15.60
2023-04-17T11:42:00.569Z,16.88
2023-04-17T11:45:07.870Z,16.13
2023-04-17T11:48:11.450Z,15.82
2023-04-17T11:51:14.037Z,16.55
2023-04-17T11:54:25.840Z,13.98
2023-04-17T11:57:28.439Z,13.38
2023-04-17T12:00:31.708Z,12.10
2023-04-17T12:03:35.522Z,13.00
2023-04-17T12:06:38.597Z,12.30
2023-04-17T12:09:42.504Z,13.27
2023-04-17T12:12:45.507Z,12.10
2023-04-17T12:15:48.140Z,13.93
2023-04-17T12:18:50.760Z,11.95
2023-04-17T12:21:54.312Z,12.45
2023-04-17T12:24:58.283Z,12.43
2023-04-17T12:28:00.833Z,11.93
2023-04-17T12:31:03.962Z,12.73
2023-04-17T12:34:06.584Z,11.38
2023-04-17T12:37:09.183Z,12.98
2023-04-17T12:40:13.217Z,11.00
2023-04-17T12:43:16.031Z,10.23
2023-04-17T12:46:18.614Z,12.10
2023-04-17T12:49:23.468Z,12.73
2023-04-17T12:52:26.108Z,11.48
2023-04-17T12:55:29.972Z,11.90
2023-04-17T12:58:32.894Z,12.48
2023-04-17T13:01:35.539Z,10.95
2023-04-17T13:04:38.254Z,12.30
2023-04-17T13:07:41.093Z,8.95
2023-04-17T13:10:45.044Z,13.52
2023-04-17T13:13:47.600Z,10.95
2023-04-17T13:16:50.875Z,11.70
2023-04-17T13:19:53.697Z,13.48
2023-04-17T13:22:58.322Z,13.50
2023-04-17T13:26:02.772Z,12.48
2023-04-17T13:29:05.297Z,11.93
2023-04-17T13:32:07.892Z,12.68
2023-04-17T13:35:13.085Z,13.63
2023-04-17T13:38:15.681Z,13.32
2023-04-17T13:41:19.557Z,14.00
2023-04-17T13:44:22.149Z,10.35
2023-04-17T13:47:24.756Z,11.30
2023-04-17T13:50:27.438Z,12.80
2023-04-17T13:53:30.034Z,11.52
2023-04-17T13:56:33.953Z,11.52
2023-04-17T13:59:36.554Z,13.13
2023-04-17T14:02:39.215Z,11.20
2023-04-17T14:05:41.862Z,9.68
2023-04-17T14:08:45.100Z,12.43
2023-04-17T14:11:48.961Z,9.90
2023-04-17T14:14:51.522Z,11.32
2023-04-17T14:17:54.151Z,10.50
2023-04-17T14:20:56.857Z,12.30
2023-04-17T14:23:59.372Z,12.20
2023-04-17T14:27:03.650Z,9.73
2023-04-17T14:30:07.382Z,11.68
2023-04-17T14:33:09.917Z,11.43
2023-04-17T14:36:12.441Z,12.02
2023-04-17T14:39:15.210Z,12.65
2023-04-17T14:42:19.270Z,12.30
2023-04-17T14:45:21.776Z,10.18
2023-04-17T14:48:24.596Z,11.52
2023-04-17T14:51:28.360Z,12.35
2023-04-17T14:54:31.027Z,11.75
2023-04-17T14:57:34.937Z,13.25
2023-04-17T15:00:38.270Z,14.13
2023-04-17T15:03:41.694Z,11.90
2023-04-17T15:06:45.776Z,12.25
2023-04-17T15:09:48.292Z,10.18
2023-04-17T15:12:52.222Z,10.02
2023-04-17T15:15:55.121Z,10.07
2023-04-17T15:18:57.681Z,9.75
2023-04-17T15:22:00.223Z,8.23
2023-04-17T15:25:02.766Z,9.38
2023-04-17T15:28:06.668Z,9.85
2023-04-17T15:31:09.227Z,8.80
2023-04-17T15:34:13.416Z,9.45
2023-04-17T15:37:16.151Z,9.30
2023-04-17T15:40:18.678Z,11.27
2023-04-17T15:43:22.668Z,11.55
2023-04-17T15:46:25.206Z,9.88
2023-04-17T15:49:28.392Z,10.43
2023-04-17T15:52:30.936Z,10.98
2023-04-17T15:55:36.198Z,10.52
2023-04-17T15:58:40.069Z,9.57
2023-04-17T16:01:42.638Z,9.90
2023-04-17T16:04:45.389Z,10.95
2023-04-17T16:07:48.031Z,11.30
2023-04-17T16:10:51.128Z,12.15
2023-04-17T16:13:55.050Z,10.90
2023-04-17T16:16:59.833Z,10.95
2023-04-17T16:20:03.574Z,12.80
2023-04-17T16:23:06.133Z,15.00
2023-04-17T16:26:08.649Z,14.50
2023-04-17T16:29:12.691Z,16.42
2023-04-17T16:32:15.460Z,15.35
2023-04-17T16:35:18.208Z,15.13
2023-04-17T16:38:20.705Z,16.83
2023-04-17T16:41:23.319Z,13.10
2023-04-17T16:44:27.838Z,14.82
2023-04-17T16:47:30.438Z,13.95
2023-04-17T16:50:33.073Z,15.80
2023-04-17T16:53:35.587Z,15.15
2023-04-17T16:56:38.180Z,15.63
2023-04-17T16:59:42.062Z,14.90
2023-04-17T17:02:44.699Z,14.88
2023-04-17T17:05:47.357Z,14.80
2023-04-17T17:08:49.939Z,15.85
2023-04-17T17:11:52.520Z,15.02
2023-04-17T17:14:56.453Z,14.52
2023-04-17T17:17:58.997Z,14.30
2023-04-17T17:21:02.015Z,13.88
2023-04-17T17:24:05.003Z,14.65
2023-04-17T17:27:07.559Z,15.88
2023-04-17T17:30:12.730Z,16.45
2023-04-17T17:33:16.951Z,16.00
2023-04-17T17:36:19.524Z,15.18
2023-04-17T17:39:22.392Z,16.45
2023-04-17T17:42:25.110Z,14.73
2023-04-17T17:45:28.971Z,17.00
2023-04-17T17:48:31.531Z,16.90
2023-04-17T17:51:34.072Z,17.42
2023-04-17T17:54:37.301Z,18.13
2023-04-17T17:57:48.810Z,17.90
2023-04-17T18:00:53.688Z,18.73
2023-04-17T18:03:56.432Z,18.55
2023-04-17T18:06:59.168Z,19.40
2023-04-17T18:10:01.700Z,18.05
2023-04-17T18:13:04.308Z,16.65
2023-04-17T18:16:08.789Z,20.27
2023-04-17T18:19:11.322Z,30.08
2023-04-17T18:22:13.888Z,21.70
2023-04-17T18:25:16.626Z,18.67
2023-04-17T18:28:19.226Z,19.45
2023-04-17T18:31:25.123Z,18.48
2023-04-17T18:34:27.760Z,20.50
2023-04-17T18:37:30.291Z,19.35
2023-04-17T18:40:32.825Z,21.02
2023-04-17T18:43:35.457Z,18.08
2023-04-17T18:46:39.394Z,18.67
2023-04-17T18:49:41.920Z,19.13
2023-04-17T18:52:48.740Z,20.27
2023-04-17T18:55:53.560Z,18.92
2023-04-17T18:58:56.100Z,20.73
2023-04-17T19:02:00.191Z,19.08
2023-04-17T19:05:02.806Z,22.17
2023-04-17T19:08:05.568Z,20.90
2023-04-17T19:11:08.139Z,19.65
2023-04-17T19:14:10.847Z,20.58
2023-04-17T19:17:15.883Z,23.27
2023-04-17T19:20:18.511Z,26.95
2023-04-17T19:23:21.071Z,25.55
2023-04-17T19:26:23.559Z,40.00
2023-04-17T19:29:26.261Z,23.35
2023-04-17T19:32:31.696Z,21.23
2023-04-17T19:35:34.483Z,22.63
2023-04-17T19:38:37.068Z,21.55
2023-04-17T19:41:39.648Z,23.38
2023-04-17T19:44:42.178Z,22.83
2023-04-17T19:47:46.051Z,23.05
2023-04-17T19:50:48.671Z,22.83
2023-04-17T19:53:53.150Z,25.05
2023-04-17T19:56:55.723Z,24.70
2023-04-17T19:59:58.312Z,24.17
2023-04-17T20:03:02.446Z,22.75
2023-04-17T20:06:05.271Z,23.35
2023-04-17T20:09:07.971Z,22.92
2023-04-17T20:12:10.549Z,22.40
2023-04-17T20:15:13.129Z,20.80
2023-04-17T20:18:17.312Z,22.42
2023-04-17T20:21:19.882Z,22.02
2023-04-17T20:24:22.476Z,22.88
2023-04-17T20:27:26.456Z,23.48
2023-04-17T20:30:29.254Z,22.65
2023-04-17T20:33:33.209Z,23.27
2023-04-17T20:36:35.774Z,22.80
2023-04-17T20:39:39.230Z,21.88
2023-04-17T20:42:42.250Z,22.95
2023-04-17T20:45:44.909Z,20.17
2023-04-17T20:48:50.198Z,21.00
2023-04-17T20:51:52.811Z,21.25
2023-04-17T20:54:55.686Z,21.20
2023-04-17T20:57:58.241Z,19.95
2023-04-17T21:01:01.823Z,20.33
2023-04-17T21:04:06.028Z,18.88
2023-04-17T21:07:08.659Z,17.67
2023-04-17T21:10:11.253Z,18.27
2023-04-17T21:13:13.816Z,18.77
2023-04-17T21:16:16.402Z,18.55
2023-04-17T21:19:22.506Z,18.05
2023-04-17T21:22:25.069Z,19.00
2023-04-17T21:25:27.667Z,18.13
2023-04-17T21:28:30.299Z,17.35
2023-04-17T21:31:32.904Z,18.02
2023-04-17T21:34:36.839Z,17.58
2023-04-17T21:37:39.394Z,18.17
2023-04-17T21:40:51.122Z,16.42
2023-04-17T21:43:54.651Z,16.02
2023-04-17T21:46:57.171Z,16.40
2023-04-17T21:50:01.096Z,16.15
2023-04-17T21:53:03.610Z,16.48
2023-04-17T21:56:07.115Z,15.95
2023-04-17T21:59:10.060Z,15.95
2023-04-17T22:02:12.682Z,14.75
2023-04-17T22:05:16.631Z,15.35
2023-04-17T22:08:19.184Z,16.17
2023-04-17T22:11:21.770Z,15.57
2023-04-17T22:14:24.280Z,14.55
2023-04-17T22:17:27.005Z,14.65
2023-04-17T22:20:30.940Z,15.02
2023-04-17T22:23:52.075Z,13.88
2023-04-17T22:27:30.852Z,15.15
2023-04-17T22:31:09.586Z,15.05
2023-04-17T22:34:30.532Z,15.85
2023-04-17T22:37:51.936Z,14.40
2023-04-17T22:41:12.136Z,14.50
2023-04-17T22:44:51.007Z,15.77
2023-04-17T22:51:49.794Z,17.17
2023-04-17T22:58:49.715Z,16.95
2023-04-17T23:02:29.800Z,17.17
2023-04-17T23:06:08.460Z,19.90
2023-04-17T23:09:11.168Z,17.95
2023-04-17T23:12:15.105Z,18.90
2023-04-17T23:15:17.597Z,18.70
2023-04-17T23:18:20.147Z,18.50
2023-04-17T23:21:22.761Z,18.98
2023-04-17T23:24:25.767Z,19.15
2023-04-17T23:27:29.695Z,20.10
2023-04-17T23:30:32.257Z,18.95
2023-04-17T23:33:34.819Z,18.60
2023-04-17T23:36:37.433Z,19.88
2023-04-17T23:39:40.466Z,19.63
2023-04-17T23:42:44.560Z,19.35
2023-04-17T23:45:47.137Z,19.88
2023-04-17T23:48:49.678Z,21.73
2023-04-17T23:51:52.228Z,20.50
2023-04-17T23:54:54.813Z,19.88
2023-04-17T23:57:58.782Z,20.77
